createdAt,value
2023-08-30T00:00:47.045Z,28.32
2023-08-30T00:03:37.515Z,28.29
2023-08-30T00:06:10.995Z,28.28
2023-08-30T00:08:43.447Z,28.26
2023-08-30T00:11:16.118Z,28.22
2023-08-30T00:13:49.280Z,28.19
2023-08-30T00:16:21.559Z,28.20
2023-08-30T00:18:53.940Z,28.21
2023-08-30T00:21:26.694Z,28.21
2023-08-30T00:23:59.255Z,28.22
2023-08-30T00:26:31.539Z,28.22
2023-08-30T00:29:03.948Z,28.21
2023-08-30T00:31:36.158Z,28.25
2023-08-30T00:34:08.620Z,28.33
2023-08-30T00:36:41.114Z,28.41
2023-08-30T00:39:14.376Z,28.48
2023-08-30T00:41:46.969Z,28.51
2023-08-30T00:44:19.386Z,28.52
2023-08-30T00:46:52.110Z,28.53
2023-08-30T00:49:24.428Z,28.47
2023-08-30T00:51:58.176Z,28.41
2023-08-30T00:54:30.587Z,28.41
2023-08-30T00:57:04.404Z,28.44
2023-08-30T00:59:37.266Z,28.44
2023-08-30T01:02:09.771Z,28.48
2023-08-30T01:04:42.152Z,28.55
2023-08-30T01:07:14.622Z,28.60
2023-08-30T01:09:47.133Z,28.59
2023-08-30T01:12:22.926Z,28.50
2023-08-30T01:14:58.565Z,28.39
2023-08-30T01:17:31.917Z,28.34
2023-08-30T01:20:10.467Z,28.37
2023-08-30T01:22:50.298Z,28.39
2023-08-30T01:25:30.351Z,28.33
2023-08-30T01:28:07.027Z,28.33
2023-08-30T01:30:42.553Z,28.36
2023-08-30T01:33:18.804Z,28.40
2023-08-30T01:35:51.237Z,28.40
2023-08-30T01:38:23.778Z,28.36
2023-08-30T01:40:57.793Z,28.32
2023-08-30T01:43:31.111Z,28.27
2023-08-30T01:46:05.612Z,28.23
2023-08-30T01:48:39.365Z,28.24
2023-08-30T01:51:12.335Z,28.26
2023-08-30T01:53:44.939Z,28.25
2023-08-30T01:56:17.450Z,28.27
2023-08-30T01:58:49.818Z,28.28
2023-08-30T02:01:22.128Z,28.23
2023-08-30T02:03:54.468Z,28.22
2023-08-30T02:06:29.161Z,28.22
2023-08-30T02:09:07.336Z,28.21
2023-08-30T02:12:00.114Z,28.22
2023-08-30T02:14:32.630Z,28.16
2023-08-30T02:17:05.534Z,28.11
2023-08-30T02:19:38.097Z,28.09
2023-08-30T02:22:10.446Z,28.08
2023-08-30T02:24:42.832Z,28.04
2023-08-30T02:27:15.290Z,27.94
2023-08-30T02:29:47.686Z,27.89
2023-08-30T02:32:22.201Z,27.87
2023-08-30T02:34:56.093Z,27.82
2023-08-30T02:37:28.373Z,27.78
2023-08-30T02:40:00.765Z,27.79
2023-08-30T02:42:34.472Z,27.80
2023-08-30T02:45:07.771Z,27.81
2023-08-30T02:47:40.246Z,27.80
2023-08-30T02:50:13.239Z,27.75
2023-08-30T02:52:45.675Z,27.74
2023-08-30T02:55:18.320Z,27.69
2023-08-30T02:57:50.628Z,27.62
2023-08-30T03:00:23.460Z,27.54
2023-08-30T03:02:55.985Z,27.51
2023-08-30T03:05:28.706Z,27.49
2023-08-30T03:08:00.989Z,27.48
2023-08-30T03:10:33.428Z,27.49
2023-08-30T03:13:08.142Z,27.47
2023-08-30T03:15:40.548Z,27.44
2023-08-30T03:18:13.217Z,27.37
2023-08-30T03:20:45.792Z,27.34
2023-08-30T03:23:17.921Z,27.31
2023-08-30T03:25:50.441Z,27.30
2023-08-30T03:28:22.810Z,27.31
2023-08-30T03:30:55.278Z,27.28
2023-08-30T03:33:27.787Z,27.20
2023-08-30T03:36:03.731Z,27.12
2023-08-30T03:38:35.924Z,27.05
2023-08-30T03:41:08.446Z,26.98
2023-08-30T03:43:41.008Z,26.95
2023-08-30T03:46:13.681Z,26.96
2023-08-30T03:48:46.116Z,26.95
2023-08-30T03:51:18.506Z,26.97
2023-08-30T03:53:50.724Z,26.98
2023-08-30T03:56:21.438Z,26.98
2023-08-30T03:58:54.218Z,26.93
2023-08-30T04:01:26.584Z,26.92
2023-08-30T04:03:58.917Z,26.93
2023-08-30T04:06:31.409Z,26.93
2023-08-30T04:09:03.868Z,26.92
2023-08-30T04:11:36.234Z,26.92
2023-08-30T04:14:09.174Z,26.93
2023-08-30T04:16:45.954Z,26.93
2023-08-30T04:19:18.494Z,26.94
2023-08-30T04:21:50.867Z,26.95
2023-08-30T04:24:23.190Z,26.97
2023-08-30T04:26:55.510Z,26.93
2023-08-30T04:29:27.827Z,26.90
2023-08-30T04:32:00.290Z,26.88
2023-08-30T04:34:32.727Z,26.84
2023-08-30T04:37:05.661Z,26.78
2023-08-30T04:39:38.025Z,26.72
2023-08-30T04:42:10.582Z,26.69
2023-08-30T04:44:42.833Z,26.67
2023-08-30T04:47:15.711Z,26.63
2023-08-30T04:53:07.131Z,26.55
2023-08-30T04:57:07.682Z,26.52
2023-08-30T05:03:47.751Z,26.52
2023-08-30T05:06:20.461Z,26.58
2023-08-30T05:08:52.673Z,26.66
2023-08-30T05:14:39.232Z,26.83
2023-08-30T05:17:12.619Z,26.87
2023-08-30T05:19:44.964Z,26.97
2023-08-30T05:22:17.405Z,27.03
2023-08-30T05:24:49.980Z,27.07
2023-08-30T05:27:22.401Z,27.18
2023-08-30T05:29:57.072Z,27.26
2023-08-30T05:32:29.304Z,27.34
2023-08-30T05:35:02.006Z,27.37
2023-08-30T05:37:34.537Z,27.43
2023-08-30T05:40:09.095Z,27.51
2023-08-30T05:42:41.275Z,27.52
2023-08-30T05:45:14.146Z,27.52
2023-08-30T05:47:46.790Z,27.57
2023-08-30T05:50:19.198Z,27.66
2023-08-30T05:52:52.718Z,27.71
2023-08-30T05:55:25.228Z,27.77
2023-08-30T05:57:57.705Z,27.83
2023-08-30T06:00:30.070Z,27.86
2023-08-30T06:03:02.522Z,27.93
2023-08-30T06:05:35.346Z,28.00
2023-08-30T06:08:09.344Z,28.06
2023-08-30T06:10:42.124Z,28.10
2023-08-30T06:13:16.301Z,28.14
2023-08-30T06:15:52.071Z,28.29
2023-08-30T06:18:24.738Z,28.42
2023-08-30T06:20:57.132Z,28.48
2023-08-30T06:23:29.526Z,28.63
2023-08-30T06:26:02.045Z,28.79
2023-08-30T06:28:34.485Z,28.97
2023-08-30T06:31:06.867Z,28.98
2023-08-30T06:33:40.259Z,28.96
2023-08-30T06:36:16.353Z,29.03
2023-08-30T06:38:48.705Z,29.10
2023-08-30T06:41:21.127Z,29.23
2023-08-30T06:43:53.637Z,29.37
2023-08-30T06:46:26.169Z,29.43
2023-08-30T06:48:58.500Z,29.51
2023-08-30T06:51:30.872Z,29.59
2023-08-30T06:54:03.762Z,29.62
2023-08-30T06:56:36.232Z,29.74
2023-08-30T07:02:54.219Z,30.16
2023-08-30T07:05:27.241Z,30.28
2023-08-30T07:07:59.533Z,30.34
2023-08-30T07:10:31.984Z,30.33
2023-08-30T07:13:05.464Z,30.34
2023-08-30T07:15:37.780Z,30.40
2023-08-30T07:18:10.687Z,30.61
2023-08-30T07:20:44.200Z,30.85
2023-08-30T07:23:16.722Z,31.05
2023-08-30T07:25:49.067Z,31.15
2023-08-30T07:28:21.544Z,31.28
2023-08-30T07:30:53.867Z,31.38
2023-08-30T07:33:26.314Z,31.47
2023-08-30T07:35:59.154Z,31.51
2023-08-30T07:38:31.676Z,31.47
2023-08-30T07:41:04.041Z,31.40
2023-08-30T07:43:36.268Z,31.32
2023-08-30T07:46:08.711Z,31.27
2023-08-30T07:48:41.493Z,31.26
2023-08-30T07:51:13.924Z,31.19
2023-08-30T07:53:46.416Z,31.17
2023-08-30T07:56:18.773Z,31.28
2023-08-30T07:58:51.196Z,31.38
2023-08-30T08:01:23.694Z,31.47
2023-08-30T08:04:06.912Z,31.53
2023-08-30T08:06:41.096Z,31.56
2023-08-30T08:09:13.502Z,31.51
2023-08-30T08:11:45.940Z,31.59
2023-08-30T08:14:18.540Z,31.62
2023-08-30T08:16:51.019Z,31.68
2023-08-30T08:19:26.070Z,31.77
2023-08-30T08:21:58.952Z,31.85
2023-08-30T08:24:31.366Z,31.91
2023-08-30T08:27:03.744Z,31.96
2023-08-30T08:29:36.156Z,31.95
2023-08-30T08:32:09.820Z,32.00
2023-08-30T08:34:42.210Z,31.95
2023-08-30T08:37:14.707Z,31.96
2023-08-30T08:39:47.668Z,32.05
2023-08-30T08:42:21.973Z,32.18
2023-08-30T08:44:56.428Z,32.32
2023-08-30T08:47:28.952Z,32.48
2023-08-30T08:50:01.619Z,32.63
2023-08-30T08:52:41.059Z,32.75
2023-08-30T08:55:27.774Z,32.84
2023-08-30T08:58:00.378Z,33.06
2023-08-30T09:00:34.253Z,33.27
2023-08-30T09:03:08.321Z,33.29
2023-08-30T09:05:42.052Z,33.45
2023-08-30T09:08:15.982Z,33.80
2023-08-30T09:10:51.926Z,34.19
2023-08-30T09:13:24.202Z,34.55
2023-08-30T09:15:56.683Z,34.93
2023-08-30T09:18:29.104Z,35.29
2023-08-30T09:21:10.828Z,35.54
2023-08-30T09:23:43.313Z,35.72
2023-08-30T09:26:16.263Z,35.91
2023-08-30T09:28:48.645Z,35.91
2023-08-30T09:31:24.601Z,35.78
2023-08-30T09:34:02.830Z,35.49
2023-08-30T09:36:41.756Z,35.21
2023-08-30T09:39:15.432Z,35.35
2023-08-30T09:41:49.640Z,35.64
2023-08-30T09:44:23.364Z,35.72
2023-08-30T09:46:58.036Z,35.99
2023-08-30T09:49:30.682Z,36.20
2023-08-30T09:52:07.684Z,36.21
2023-08-30T09:54:43.063Z,36.30
2023-08-30T09:57:16.420Z,36.43
2023-08-30T09:59:48.937Z,36.61
2023-08-30T10:02:21.978Z,36.53
2023-08-30T10:04:55.015Z,36.73
2023-08-30T10:07:27.946Z,37.03
2023-08-30T10:10:09.742Z,37.41
2023-08-30T10:12:48.062Z,37.43
2023-08-30T10:15:24.331Z,37.20
2023-08-30T10:17:58.033Z,37.25
2023-08-30T10:20:32.912Z,37.00
2023-08-30T10:23:05.731Z,36.71
2023-08-30T10:25:38.674Z,36.68
2023-08-30T10:28:13.136Z,37.07
2023-08-30T10:30:46.287Z,37.55
2023-08-30T10:33:19.791Z,37.94
2023-08-30T10:35:52.970Z,38.22
2023-08-30T10:38:32.231Z,38.38
2023-08-30T10:41:12.075Z,38.65
2023-08-30T10:43:44.609Z,39.04
2023-08-30T10:46:17.254Z,39.26
2023-08-30T10:48:52.402Z,39.58
2023-08-30T10:51:37.125Z,39.88
2023-08-30T10:54:19.686Z,39.97
2023-08-30T10:56:57.510Z,40.03
2023-08-30T10:59:30.726Z,40.22
2023-08-30T11:02:06.025Z,40.29
2023-08-30T11:04:43.843Z,40.52
2023-08-30T11:07:16.764Z,40.97
2023-08-30T11:09:49.363Z,41.30
2023-08-30T11:12:23.507Z,41.37
2023-08-30T11:14:56.685Z,41.07
2023-08-30T11:17:30.060Z,41.20
2023-08-30T11:20:11.866Z,41.51
2023-08-30T11:22:46.359Z,41.61
2023-08-30T11:25:19.334Z,41.55
2023-08-30T11:27:51.669Z,41.45
2023-08-30T11:30:24.014Z,41.41
2023-08-30T11:32:56.945Z,41.48
2023-08-30T11:35:30.706Z,41.58
2023-08-30T11:38:03.814Z,40.95
2023-08-30T11:40:38.481Z,40.19
2023-08-30T11:43:11.447Z,39.63
2023-08-30T11:45:44.018Z,38.97
2023-08-30T11:48:16.630Z,38.69
2023-08-30T11:50:49.157Z,38.63
2023-08-30T11:53:21.754Z,38.91
2023-08-30T11:55:54.147Z,39.31
2023-08-30T11:58:26.525Z,39.57
2023-08-30T12:00:59.809Z,39.69
2023-08-30T12:03:33.169Z,39.79
2023-08-30T12:06:12.997Z,39.79
2023-08-30T12:08:45.886Z,39.97
2023-08-30T12:11:24.811Z,39.98
2023-08-30T12:14:06.103Z,39.86
2023-08-30T12:16:38.592Z,39.80
2023-08-30T12:19:14.772Z,39.69
2023-08-30T12:21:49.479Z,39.59
2023-08-30T12:24:22.470Z,39.76
2023-08-30T12:26:54.855Z,39.85
2023-08-30T12:29:27.372Z,39.68
2023-08-30T12:31:59.995Z,39.64
2023-08-30T12:34:36.687Z,39.51
2023-08-30T12:37:09.654Z,39.14
2023-08-30T12:39:46.268Z,38.91
2023-08-30T12:42:21.104Z,38.82
2023-08-30T12:44:53.671Z,38.91
2023-08-30T12:47:26.612Z,38.97
2023-08-30T12:49:59.225Z,38.97
2023-08-30T12:52:32.353Z,38.84
2023-08-30T12:55:05.067Z,38.70
2023-08-30T12:57:37.715Z,38.45
2023-08-30T13:00:12.262Z,38.08
2023-08-30T13:02:44.832Z,37.64
2023-08-30T13:05:18.810Z,37.35
2023-08-30T13:07:51.465Z,37.29
2023-08-30T13:10:24.072Z,37.35
2023-08-30T13:12:56.559Z,37.53
2023-08-30T13:15:29.257Z,37.62
2023-08-30T13:18:01.643Z,37.74
2023-08-30T13:20:34.167Z,38.00
2023-08-30T13:23:08.690Z,38.30
2023-08-30T13:25:43.692Z,38.35
2023-08-30T13:28:16.175Z,38.41
2023-08-30T13:34:05.318Z,38.51
2023-08-30T13:36:37.950Z,38.48
2023-08-30T13:39:10.348Z,38.39
2023-08-30T13:41:42.905Z,38.30
2023-08-30T13:44:15.633Z,38.18
2023-08-30T13:46:49.914Z,37.99
2023-08-30T13:49:22.638Z,37.89
2023-08-30T13:51:56.812Z,37.78
2023-08-30T13:54:31.269Z,37.86
2023-08-30T13:57:04.664Z,37.93
2023-08-30T13:59:37.948Z,37.91
2023-08-30T14:02:10.390Z,38.06
2023-08-30T14:04:42.718Z,38.10
2023-08-30T14:07:15.182Z,37.98
2023-08-30T14:09:47.484Z,37.98
2023-08-30T14:12:19.930Z,38.24
2023-08-30T14:14:53.168Z,38.41
2023-08-30T14:17:25.417Z,38.47
2023-08-30T14:19:57.805Z,38.56
2023-08-30T14:22:30.133Z,38.50
2023-08-30T14:27:41.611Z,38.66
2023-08-30T14:30:14.860Z,38.62
2023-08-30T14:32:47.352Z,38.64
2023-08-30T14:35:21.892Z,38.73
2023-08-30T14:37:54.264Z,38.78
2023-08-30T14:40:26.724Z,38.79
2023-08-30T14:42:59.049Z,38.78
2023-08-30T14:45:31.550Z,38.74
2023-08-30T14:48:03.822Z,38.61
2023-08-30T14:50:36.196Z,38.52
2023-08-30T14:53:08.741Z,38.34
2023-08-30T14:55:41.053Z,38.04
2023-08-30T14:58:13.469Z,37.78
2023-08-30T15:00:45.916Z,37.57
2023-08-30T15:03:18.435Z,37.34
2023-08-30T15:05:56.642Z,37.13
2023-08-30T15:08:29.059Z,36.85
2023-08-30T15:11:04.076Z,36.42
2023-08-30T15:13:36.925Z,36.08
2023-08-30T15:16:09.419Z,35.82
2023-08-30T15:18:41.747Z,35.72
2023-08-30T15:21:14.076Z,35.62
2023-08-30T15:23:46.461Z,35.51
2023-08-30T15:26:21.863Z,35.33
2023-08-30T15:28:54.366Z,35.13
2023-08-30T15:31:26.757Z,35.09
2023-08-30T15:33:59.686Z,35.12
2023-08-30T15:36:33.836Z,35.22
2023-08-30T15:39:06.783Z,35.31
2023-08-30T15:41:39.108Z,35.34
2023-08-30T15:44:11.449Z,35.38
2023-08-30T15:46:43.781Z,35.39
2023-08-30T15:49:16.171Z,35.36
2023-08-30T15:51:48.635Z,35.27
2023-08-30T15:54:21.158Z,35.17
2023-08-30T15:56:53.677Z,35.05
2023-08-30T15:59:26.238Z,35.04
2023-08-30T16:01:58.687Z,34.93
2023-08-30T16:04:33.680Z,34.34
2023-08-30T16:07:08.987Z,33.58
2023-08-30T16:09:41.428Z,32.79
2023-08-30T16:12:13.705Z,32.15
2023-08-30T16:14:45.992Z,31.35
2023-08-30T16:17:18.270Z,30.79
2023-08-30T16:19:50.798Z,30.44
2023-08-30T16:22:23.211Z,30.04
2023-08-30T16:24:55.726Z,29.76
2023-08-30T16:27:28.147Z,29.51
2023-08-30T16:30:01.557Z,29.27
2023-08-30T16:32:34.025Z,29.04
2023-08-30T16:35:07.206Z,28.79
2023-08-30T16:37:39.598Z,28.60
2023-08-30T16:40:13.589Z,28.54
2023-08-30T16:42:46.127Z,28.49
2023-08-30T16:45:19.852Z,28.29
2023-08-30T16:48:06.526Z,28.15
2023-08-30T16:50:39.955Z,28.00
2023-08-30T16:53:12.554Z,27.89
2023-08-30T16:55:44.910Z,27.76
2023-08-30T16:58:17.470Z,27.62
2023-08-30T17:00:49.965Z,27.50
2023-08-30T17:03:22.416Z,27.37
2023-08-30T17:05:54.705Z,27.28
2023-08-30T17:08:27.080Z,27.19
2023-08-30T17:11:06.567Z,27.15
2023-08-30T17:13:39.435Z,27.15
2023-08-30T17:16:11.790Z,27.19
2023-08-30T17:18:44.964Z,27.25
2023-08-30T17:21:17.398Z,27.21
2023-08-30T17:23:49.826Z,27.13
2023-08-30T17:26:23.069Z,27.04
2023-08-30T17:28:55.426Z,26.92
2023-08-30T17:31:28.160Z,26.73
2023-08-30T17:34:00.744Z,26.53
2023-08-30T17:36:35.895Z,26.36
2023-08-30T17:39:08.856Z,26.26
2023-08-30T17:41:41.138Z,26.12
2023-08-30T17:44:11.831Z,25.99
2023-08-30T17:46:44.861Z,25.83
2023-08-30T17:49:17.078Z,25.75
2023-08-30T17:51:48.855Z,25.70
2023-08-30T17:54:23.297Z,25.64
2023-08-30T17:56:55.728Z,25.56
2023-08-30T17:59:28.641Z,25.44
2023-08-30T18:02:00.954Z,25.39
2023-08-30T18:04:32.674Z,25.35
2023-08-30T18:07:05.207Z,25.26
2023-08-30T18:09:38.939Z,25.21
2023-08-30T18:12:11.434Z,25.14
2023-08-30T18:14:47.573Z,25.07
2023-08-30T18:17:20.315Z,25.01
2023-08-30T18:19:52.734Z,24.92
2023-08-30T18:22:25.399Z,24.84
2023-08-30T18:24:57.757Z,24.74
2023-08-30T18:27:28.581Z,24.66
2023-08-30T18:30:00.894Z,24.54
2023-08-30T18:32:33.444Z,24.47
2023-08-30T18:35:08.134Z,24.34
2023-08-30T18:37:40.373Z,24.26
2023-08-30T18:40:14.610Z,24.21
2023-08-30T18:42:46.839Z,24.14
2023-08-30T18:45:17.657Z,24.12
2023-08-30T18:47:50.047Z,24.03
2023-08-30T18:50:20.770Z,23.99
2023-08-30T18:52:53.218Z,23.92
2023-08-30T18:55:23.768Z,23.86
2023-08-30T18:57:59.754Z,23.80
2023-08-30T19:00:32.415Z,23.79
2023-08-30T19:03:05.582Z,23.79
2023-08-30T19:05:40.633Z,23.82
2023-08-30T19:08:14.881Z,23.85
2023-08-30T19:10:47.344Z,23.92
2023-08-30T19:13:18.040Z,24.05
2023-08-30T19:15:50.370Z,24.11
2023-08-30T19:18:25.604Z,24.08
2023-08-30T19:21:02.482Z,24.03
2023-08-30T19:23:34.838Z,23.95
2023-08-30T19:26:05.648Z,23.90
2023-08-30T19:28:38.246Z,23.76
2023-08-30T19:31:10.680Z,23.73
2023-08-30T19:33:43.390Z,23.70
2023-08-30T19:36:18.032Z,23.73
2023-08-30T19:38:50.578Z,23.74
2023-08-30T19:41:21.083Z,23.73
2023-08-30T19:43:55.838Z,23.72
2023-08-30T19:46:29.453Z,23.70
2023-08-30T19:49:01.658Z,23.68
2023-08-30T19:51:34.108Z,23.67
2023-08-30T19:54:06.567Z,23.56
2023-08-30T19:56:38.958Z,23.48
2023-08-30T19:59:11.253Z,23.45
2023-08-30T20:01:43.588Z,23.38
2023-08-30T20:04:16.012Z,23.29
2023-08-30T20:06:48.529Z,23.29
2023-08-30T20:09:21.579Z,23.31
2023-08-30T20:11:53.885Z,23.36
2023-08-30T20:14:24.739Z,23.42
2023-08-30T20:16:57.229Z,23.48
2023-08-30T20:19:29.603Z,23.49
2023-08-30T20:22:01.470Z,23.52
2023-08-30T20:24:34.138Z,23.47
2023-08-30T20:27:06.814Z,23.39
2023-08-30T20:29:39.301Z,23.40
2023-08-30T20:32:12.600Z,23.41
2023-08-30T20:34:46.336Z,23.37
2023-08-30T20:37:18.647Z,23.35
2023-08-30T20:39:49.342Z,23.37
2023-08-30T20:42:23.138Z,23.36
2023-08-30T20:44:57.065Z,23.37
2023-08-30T20:47:27.484Z,23.40
2023-08-30T20:49:59.841Z,23.35
2023-08-30T20:52:32.361Z,23.31
2023-08-30T20:55:05.694Z,23.31
2023-08-30T20:57:38.012Z,23.25
2023-08-30T21:00:12.121Z,23.26
2023-08-30T21:02:45.029Z,23.30
2023-08-30T21:05:17.396Z,23.33
2023-08-30T21:07:49.626Z,23.36
2023-08-30T21:10:22.255Z,23.39
2023-08-30T21:13:05.325Z,23.42
2023-08-30T21:15:38.730Z,23.50
2023-08-30T21:18:09.496Z,23.55
2023-08-30T21:20:41.886Z,23.52
2023-08-30T21:23:14.544Z,23.49
2023-08-30T21:25:47.750Z,23.41
2023-08-30T21:28:20.388Z,23.38
2023-08-30T21:30:52.772Z,23.42
2023-08-30T21:33:25.459Z,23.39
2023-08-30T21:35:57.799Z,23.36
2023-08-30T21:38:31.356Z,23.39
2023-08-30T21:41:04.998Z,23.36
2023-08-30T21:43:37.522Z,23.36
2023-08-30T21:46:09.857Z,23.36
2023-08-30T21:48:40.282Z,23.36
2023-08-30T21:51:12.667Z,23.41
2023-08-30T21:53:43.352Z,23.47
2023-08-30T21:56:16.344Z,23.44
2023-08-30T21:58:50.617Z,23.48
2023-08-30T22:01:23.101Z,23.51
2023-08-30T22:03:54.390Z,23.57
2023-08-30T22:06:26.520Z,23.58
2023-08-30T22:08:59.827Z,23.56
2023-08-30T22:11:32.874Z,23.65
2023-08-30T22:14:07.666Z,23.68
2023-08-30T22:16:40.294Z,23.67
2023-08-30T22:19:12.850Z,23.62
2023-08-30T22:21:45.396Z,23.52
2023-08-30T22:24:15.986Z,23.43
2023-08-30T22:26:48.399Z,23.39
2023-08-30T22:29:22.095Z,23.40
2023-08-30T22:31:55.429Z,23.46
2023-08-30T22:34:28.529Z,23.57
2023-08-30T22:37:01.076Z,23.67
2023-08-30T22:39:33.492Z,23.73
2023-08-30T22:42:06.855Z,23.72
2023-08-30T22:44:39.393Z,23.72
2023-08-30T22:47:11.775Z,23.74
2023-08-30T22:49:44.185Z,23.83
2023-08-30T22:52:15.614Z,23.88
2023-08-30T22:54:48.074Z,23.92
2023-08-30T22:57:20.497Z,23.91
2023-08-30T22:59:52.955Z,23.90
2023-08-30T23:02:23.611Z,23.84
2023-08-30T23:04:56.048Z,23.79
2023-08-30T23:07:28.235Z,23.78
2023-08-30T23:10:00.529Z,23.74
2023-08-30T23:12:31.063Z,23.78
2023-08-30T23:15:03.472Z,23.78
2023-08-30T23:17:46.321Z,23.75
2023-08-30T23:20:19.900Z,23.67
2023-08-30T23:22:52.335Z,23.67
2023-08-30T23:25:23.431Z,23.78
2023-08-30T23:27:58.115Z,23.82
2023-08-30T23:30:31.108Z,23.86
2023-08-30T23:33:04.943Z,23.90
2023-08-30T23:35:37.309Z,23.90
2023-08-30T23:38:08.129Z,23.88
2023-08-30T23:40:40.989Z,23.83
2023-08-30T23:43:14.281Z,23.82
2023-08-30T23:45:52.617Z,23.83
2023-08-30T23:48:25.619Z,23.82
2023-08-30T23:50:58.490Z,23.81
2023-08-30T23:53:30.757Z,23.82
2023-08-30T23:56:01.516Z,23.84
2023-08-30T23:58:34.666Z,23.85
